Terminal Aerodrome Forecast
Issued by NWS

Home | Current Version | Previous Version | Text Only | Print | Product List | Glossary On
Versions: 1 2 3 4 5 6 7 8 9 10 11 12 13 14 15 16 17 18 19 20 21 22 23 24 25 26 27 28 29 30 31 32 33
000
FTUS41 KOKX 291743
TAFHPN
TAF
KHPN 291743Z 2918/3018 17009KT P6SM FEW045
     FM292300 14003KT P6SM FEW250
     FM300800 VRB02KT 1SM BR SCT005 BKN010
     FM301300 18006KT P6SM SCT015
     FM301700 18010KT P6SM SCT040
      AMD NOT SKED=

USA.gov is the U.S. government's official web portal to all federal, state and local government web resources and services.